sensor_id;sensor_type;location;lat;lon;timestamp;pressure;altitude;pressure_sealevel;temperature;humidity
61384;BME280;63511;49.346;8.798;2023-05-23T00:02:12;99964.03;;;20.20;75.90
61384;BME280;63511;49.346;8.798;2023-05-23T00:04:39;99963.31;;;20.27;75.64
61384;BME280;63511;49.346;8.798;2023-05-23T00:07:07;99953.41;;;20.41;74.80
61384;BME280;63511;49.346;8.798;2023-05-23T00:09:34;99971.53;;;20.12;76.76
61384;BME280;63511;49.346;8.798;2023-05-23T00:12:00;99967.50;;;20.22;76.10
61384;BME280;63511;49.346;8.798;2023-05-23T00:14:28;99964.53;;;20.05;76.64
61384;BME280;63511;49.346;8.798;2023-05-23T00:16:58;99974.88;;;19.72;78.33
61384;BME280;63511;49.346;8.798;2023-05-23T00:19:25;99974.19;;;20.15;77.22
61384;BME280;63511;49.346;8.798;2023-05-23T00:21:52;99975.16;;;20.20;77.54
61384;BME280;63511;49.346;8.798;2023-05-23T00:24:22;99976.53;;;20.42;76.66
61384;BME280;63511;49.346;8.798;2023-05-23T00:26:52;99981.31;;;20.28;77.71
61384;BME280;63511;49.346;8.798;2023-05-23T00:29:18;99976.66;;;20.48;76.56
61384;BME280;63511;49.346;8.798;2023-05-23T00:31:46;99976.88;;;20.20;78.30
61384;BME280;63511;49.346;8.798;2023-05-23T00:34:13;99971.09;;;20.30;77.85
61384;BME280;63511;49.346;8.798;2023-05-23T00:36:39;99974.28;;;20.56;76.37
61384;BME280;63511;49.346;8.798;2023-05-23T00:39:07;99968.91;;;20.47;76.38
61384;BME280;63511;49.346;8.798;2023-05-23T00:41:41;99975.25;;;20.62;76.64
61384;BME280;63511;49.346;8.798;2023-05-23T00:44:07;99976.19;;;20.28;77.40
61384;BME280;63511;49.346;8.798;2023-05-23T00:46:35;99976.66;;;20.48;76.41
61384;BME280;63511;49.346;8.798;2023-05-23T00:49:03;99977.53;;;20.49;76.32
61384;BME280;63511;49.346;8.798;2023-05-23T00:51:29;99978.53;;;20.55;75.89
61384;BME280;63511;49.346;8.798;2023-05-23T00:53:56;99976.88;;;20.21;76.71
61384;BME280;63511;49.346;8.798;2023-05-23T00:56:25;99979.00;;;20.38;76.46
61384;BME280;63511;49.346;8.798;2023-05-23T00:58:52;99980.59;;;20.32;76.86
61384;BME280;63511;49.346;8.798;2023-05-23T01:01:18;99975.81;;;20.12;77.35
61384;BME280;63511;49.346;8.798;2023-05-23T01:03:46;99977.53;;;20.13;77.33
61384;BME280;63511;49.346;8.798;2023-05-23T01:06:14;99980.91;;;20.10;76.81
61384;BME280;63511;49.346;8.798;2023-05-23T01:08:41;99981.44;;;19.97;77.43
61384;BME280;63511;49.346;8.798;2023-05-23T01:11:10;99980.97;;;20.13;76.83
61384;BME280;63511;49.346;8.798;2023-05-23T01:13:41;99977.75;;;20.22;76.52
61384;BME280;63511;49.346;8.798;2023-05-23T01:16:13;99984.81;;;20.30;76.35
61384;BME280;63511;49.346;8.798;2023-05-23T01:18:43;99984.75;;;20.29;75.96
61384;BME280;63511;49.346;8.798;2023-05-23T01:21:15;99980.78;;;20.04;76.68
61384;BME280;63511;49.346;8.798;2023-05-23T01:24:00;99995.56;;;19.47;80.73
61384;BME280;63511;49.346;8.798;2023-05-23T01:26:30;99988.22;;;19.61;80.24
61384;BME280;63511;49.346;8.798;2023-05-23T01:29:02;99994.34;;;19.66;79.19
61384;BME280;63511;49.346;8.798;2023-05-23T01:31:34;99989.63;;;19.82;78.02
61384;BME280;63511;49.346;8.798;2023-05-23T01:34:01;99989.63;;;19.82;77.49
61384;BME280;63511;49.346;8.798;2023-05-23T01:36:29;99992.50;;;19.60;78.77
61384;BME280;63511;49.346;8.798;2023-05-23T01:38:59;99996.34;;;19.44;79.60
61384;BME280;63511;49.346;8.798;2023-05-23T01:41:26;100003.59;;;19.29;80.07
61384;BME280;63511;49.346;8.798;2023-05-23T01:43:52;100004.44;;;19.60;79.33
61384;BME280;63511;49.346;8.798;2023-05-23T01:46:21;100001.44;;;19.76;78.23
61384;BME280;63511;49.346;8.798;2023-05-23T01:48:48;100000.66;;;19.80;77.48
61384;BME280;63511;49.346;8.798;2023-05-23T01:51:15;100000.88;;;19.55;77.74
61384;BME280;63511;49.346;8.798;2023-05-23T01:53:42;99996.25;;;19.73;77.52
61384;BME280;63511;49.346;8.798;2023-05-23T01:56:09;100004.69;;;19.69;77.19
61384;BME280;63511;49.346;8.798;2023-05-23T01:58:36;100005.06;;;19.51;78.74
61384;BME280;63511;49.346;8.798;2023-05-23T02:01:02;100004.25;;;19.52;77.70
61384;BME280;63511;49.346;8.798;2023-05-23T02:03:30;100012.00;;;19.55;77.66
61384;BME280;63511;49.346;8.798;2023-05-23T02:05:57;100018.09;;;19.60;77.64
61384;BME280;63511;49.346;8.798;2023-05-23T02:08:23;100024.91;;;19.60;78.27
61384;BME280;63511;49.346;8.798;2023-05-23T02:10:50;100021.38;;;19.55;78.33
61384;BME280;63511;49.346;8.798;2023-05-23T02:13:17;100024.31;;;19.07;80.20
61384;BME280;63511;49.346;8.798;2023-05-23T02:15:43;100022.88;;;19.46;78.57
61384;BME280;63511;49.346;8.798;2023-05-23T02:18:10;100026.34;;;19.48;77.42
61384;BME280;63511;49.346;8.798;2023-05-23T02:20:38;100028.69;;;19.72;77.46
61384;BME280;63511;49.346;8.798;2023-05-23T02:23:15;100028.56;;;19.68;77.36
61384;BME280;63511;49.346;8.798;2023-05-23T02:25:43;100026.72;;;19.64;77.31
61384;BME280;63511;49.346;8.798;2023-05-23T02:28:10;100029.38;;;19.35;78.15
61384;BME280;63511;49.346;8.798;2023-05-23T02:30:37;100032.38;;;19.50;77.76
61384;BME280;63511;49.346;8.798;2023-05-23T02:33:04;100040.06;;;19.21;79.43
61384;BME280;63511;49.346;8.798;2023-05-23T02:35:31;100030.13;;;19.31;79.84
61384;BME280;63511;49.346;8.798;2023-05-23T02:38:00;100034.94;;;19.21;80.73
61384;BME280;63511;49.346;8.798;2023-05-23T02:40:26;100034.72;;;19.43;80.39
61384;BME280;63511;49.346;8.798;2023-05-23T02:42:53;100043.00;;;19.34;80.69
61384;BME280;63511;49.346;8.798;2023-05-23T02:45:21;100035.34;;;19.66;79.37
61384;BME280;63511;49.346;8.798;2023-05-23T02:47:48;100034.06;;;19.83;77.95
61384;BME280;63511;49.346;8.798;2023-05-23T02:50:14;100032.19;;;19.76;78.31
61384;BME280;63511;49.346;8.798;2023-05-23T02:52:41;100033.44;;;19.91;77.26
61384;BME280;63511;49.346;8.798;2023-05-23T02:55:09;100041.03;;;19.56;78.58
61384;BME280;63511;49.346;8.798;2023-05-23T02:57:36;100040.44;;;19.34;79.61
61384;BME280;63511;49.346;8.798;2023-05-23T03:00:03;100035.16;;;19.60;78.83
61384;BME280;63511;49.346;8.798;2023-05-23T03:02:30;100032.81;;;19.67;77.57
61384;BME280;63511;49.346;8.798;2023-05-23T03:04:56;100032.66;;;19.61;78.06
61384;BME280;63511;49.346;8.798;2023-05-23T03:07:23;100038.66;;;19.62;77.90
61384;BME280;63511;49.346;8.798;2023-05-23T03:09:50;100039.44;;;19.29;79.50
61384;BME280;63511;49.346;8.798;2023-05-23T03:12:19;100034.44;;;19.32;79.41
61384;BME280;63511;49.346;8.798;2023-05-23T03:14:45;100039.31;;;19.25;78.57
61384;BME280;63511;49.346;8.798;2023-05-23T03:17:12;100036.94;;;19.31;78.71
61384;BME280;63511;49.346;8.798;2023-05-23T03:19:40;100047.13;;;18.99;79.92
61384;BME280;63511;49.346;8.798;2023-05-23T03:22:07;100044.22;;;18.87;80.59
61384;BME280;63511;49.346;8.798;2023-05-23T03:24:33;100050.13;;;19.15;79.53
61384;BME280;63511;49.346;8.798;2023-05-23T03:27:00;100050.47;;;18.97;80.53
61384;BME280;63511;49.346;8.798;2023-05-23T03:29:28;100056.81;;;19.09;80.13
61384;BME280;63511;49.346;8.798;2023-05-23T03:31:55;100054.63;;;18.93;80.66
61384;BME280;63511;49.346;8.798;2023-05-23T03:34:21;100052.22;;;18.98;80.23
61384;BME280;63511;49.346;8.798;2023-05-23T03:36:50;100054.13;;;19.05;80.49
61384;BME280;63511;49.346;8.798;2023-05-23T03:39:16;100053.19;;;19.01;81.18
61384;BME280;63511;49.346;8.798;2023-05-23T03:41:43;100051.19;;;19.21;80.58
61384;BME280;63511;49.346;8.798;2023-05-23T03:44:11;100057.84;;;19.77;78.27
61384;BME280;63511;49.346;8.798;2023-05-23T03:46:40;100054.16;;;20.01;76.95
61384;BME280;63511;49.346;8.798;2023-05-23T03:49:06;100052.84;;;20.51;75.58
61384;BME280;63511;49.346;8.798;2023-05-23T03:51:33;100059.56;;;20.47;75.50
61384;BME280;63511;49.346;8.798;2023-05-23T03:53:59;100055.88;;;20.34;75.93
61384;BME280;63511;49.346;8.798;2023-05-23T03:56:26;100059.03;;;20.24;76.45
61384;BME280;63511;49.346;8.798;2023-05-23T03:58:53;100061.41;;;20.53;75.17
61384;BME280;63511;49.346;8.798;2023-05-23T04:01:19;100068.31;;;20.19;77.02
61384;BME280;63511;49.346;8.798;2023-05-23T04:03:49;100065.63;;;20.49;75.21
61384;BME280;63511;49.346;8.798;2023-05-23T04:06:16;100063.97;;;20.53;75.88
61384;BME280;63511;49.346;8.798;2023-05-23T04:08:47;100071.00;;;20.60;74.53
61384;BME280;63511;49.346;8.798;2023-05-23T04:11:13;100064.59;;;20.80;74.01
61384;BME280;63511;49.346;8.798;2023-05-23T04:13:40;100062.50;;;21.01;72.96
61384;BME280;63511;49.346;8.798;2023-05-23T04:16:08;100067.16;;;21.17;72.67
61384;BME280;63511;49.346;8.798;2023-05-23T04:18:34;100071.84;;;20.99;73.88
61384;BME280;63511;49.346;8.798;2023-05-23T04:21:04;100076.41;;;20.34;76.30
61384;BME280;63511;49.346;8.798;2023-05-23T04:23:31;100080.53;;;20.65;76.36
61384;BME280;63511;49.346;8.798;2023-05-23T04:25:57;100080.25;;;20.91;74.80
61384;BME280;63511;49.346;8.798;2023-05-23T04:28:25;100079.78;;;21.08;73.96
61384;BME280;63511;49.346;8.798;2023-05-23T04:30:51;100077.91;;;21.01;74.07
61384;BME280;63511;49.346;8.798;2023-05-23T04:33:18;100079.53;;;20.59;74.79
61384;BME280;63511;49.346;8.798;2023-05-23T04:35:44;100084.50;;;20.53;74.38
61384;BME280;63511;49.346;8.798;2023-05-23T04:38:12;100076.22;;;20.64;73.90
61384;BME280;63511;49.346;8.798;2023-05-23T04:40:39;100075.06;;;20.88;72.56
61384;BME280;63511;49.346;8.798;2023-05-23T04:43:06;100076.75;;;20.87;72.63
61384;BME280;63511;49.346;8.798;2023-05-23T04:45:34;100077.81;;;20.97;72.69
61384;BME280;63511;49.346;8.798;2023-05-23T04:48:00;100085.41;;;20.92;72.20
61384;BME280;63511;49.346;8.798;2023-05-23T04:50:27;100076.84;;;21.32;71.04
61384;BME280;63511;49.346;8.798;2023-05-23T04:52:57;100085.34;;;21.30;70.68
61384;BME280;63511;49.346;8.798;2023-05-23T04:55:25;100084.78;;;21.02;70.89
61384;BME280;63511;49.346;8.798;2023-05-23T04:57:52;100089.22;;;21.51;70.32
61384;BME280;63511;49.346;8.798;2023-05-23T05:00:18;100092.81;;;21.61;69.96
61384;BME280;63511;49.346;8.798;2023-05-23T05:02:45;100089.50;;;21.65;69.75
61384;BME280;63511;49.346;8.798;2023-05-23T05:05:12;100081.00;;;21.26;68.78
61384;BME280;63511;49.346;8.798;2023-05-23T05:07:38;100096.44;;;20.88;69.90
61384;BME280;63511;49.346;8.798;2023-05-23T05:10:06;100092.06;;;21.22;68.80
61384;BME280;63511;49.346;8.798;2023-05-23T05:12:34;100094.28;;;21.47;68.29
61384;BME280;63511;49.346;8.798;2023-05-23T05:15:01;100103.06;;;21.58;68.14
61384;BME280;63511;49.346;8.798;2023-05-23T05:17:28;100111.81;;;20.87;68.12
61384;BME280;63511;49.346;8.798;2023-05-23T05:20:00;100115.66;;;21.05;66.71
61384;BME280;63511;49.346;8.798;2023-05-23T05:22:30;100109.25;;;21.26;66.97
61384;BME280;63511;49.346;8.798;2023-05-23T05:24:57;100115.72;;;21.08;64.92
61384;BME280;63511;49.346;8.798;2023-05-23T05:27:24;100113.25;;;21.13;65.46
61384;BME280;63511;49.346;8.798;2023-05-23T05:29:52;100121.38;;;20.94;66.53
61384;BME280;63511;49.346;8.798;2023-05-23T05:32:21;100120.72;;;21.02;65.67
61384;BME280;63511;49.346;8.798;2023-05-23T05:34:48;100128.56;;;20.71;65.42
61384;BME280;63511;49.346;8.798;2023-05-23T05:37:14;100135.09;;;20.57;65.90
61384;BME280;63511;49.346;8.798;2023-05-23T05:39:41;100134.25;;;20.58;66.15
61384;BME280;63511;49.346;8.798;2023-05-23T05:42:08;100136.56;;;20.85;65.94
61384;BME280;63511;49.346;8.798;2023-05-23T05:44:37;100140.81;;;21.20;65.12
61384;BME280;63511;49.346;8.798;2023-05-23T05:47:05;100144.25;;;21.19;64.38
61384;BME280;63511;49.346;8.798;2023-05-23T05:49:31;100152.66;;;20.76;65.62
61384;BME280;63511;49.346;8.798;2023-05-23T05:51:58;100150.66;;;21.02;64.75
61384;BME280;63511;49.346;8.798;2023-05-23T05:54:25;100152.72;;;21.16;64.82
61384;BME280;63511;49.346;8.798;2023-05-23T05:56:51;100156.88;;;21.11;64.15
61384;BME280;63511;49.346;8.798;2023-05-23T05:59:18;100167.06;;;20.71;65.32
61384;BME280;63511;49.346;8.798;2023-05-23T06:01:44;100162.03;;;20.75;65.31
61384;BME280;63511;49.346;8.798;2023-05-23T06:04:13;100174.38;;;20.90;65.37
61384;BME280;63511;49.346;8.798;2023-05-23T06:06:39;100181.59;;;20.70;65.30
61384;BME280;63511;49.346;8.798;2023-05-23T06:09:06;100179.59;;;20.59;65.67
61384;BME280;63511;49.346;8.798;2023-05-23T06:11:32;100175.03;;;20.47;65.85
61384;BME280;63511;49.346;8.798;2023-05-23T06:14:02;100183.59;;;20.16;66.46
61384;BME280;63511;49.346;8.798;2023-05-23T06:16:29;100182.63;;;20.11;66.87
61384;BME280;63511;49.346;8.798;2023-05-23T06:18:56;100189.88;;;20.27;66.32
61384;BME280;63511;49.346;8.798;2023-05-23T06:21:24;100189.72;;;20.21;66.27
61384;BME280;63511;49.346;8.798;2023-05-23T06:23:51;100196.81;;;20.30;65.91
61384;BME280;63511;49.346;8.798;2023-05-23T06:26:18;100195.56;;;20.16;66.17
61384;BME280;63511;49.346;8.798;2023-05-23T06:28:44;100199.25;;;20.25;65.81
61384;BME280;63511;49.346;8.798;2023-05-23T06:31:17;100216.22;;;20.52;65.57
61384;BME280;63511;49.346;8.798;2023-05-23T06:33:43;100206.94;;;20.57;64.36
61384;BME280;63511;49.346;8.798;2023-05-23T06:36:10;100211.03;;;20.50;64.15
61384;BME280;63511;49.346;8.798;2023-05-23T06:38:38;100202.84;;;20.65;64.60
61384;BME280;63511;49.346;8.798;2023-05-23T06:41:04;100207.81;;;20.59;64.34
61384;BME280;63511;49.346;8.798;2023-05-23T06:43:32;100199.31;;;21.32;62.19
61384;BME280;63511;49.346;8.798;2023-05-23T06:46:00;100205.63;;;20.74;62.86
61384;BME280;63511;49.346;8.798;2023-05-23T06:48:27;100209.84;;;20.70;62.59
61384;BME280;63511;49.346;8.798;2023-05-23T06:50:53;100204.94;;;21.15;62.07
61384;BME280;63511;49.346;8.798;2023-05-23T06:53:20;100213.53;;;21.17;62.19
61384;BME280;63511;49.346;8.798;2023-05-23T06:55:48;100214.41;;;20.82;62.99
61384;BME280;63511;49.346;8.798;2023-05-23T06:58:14;100227.81;;;20.38;62.57
61384;BME280;63511;49.346;8.798;2023-05-23T07:00:41;100238.34;;;21.17;61.66
61384;BME280;63511;49.346;8.798;2023-05-23T07:03:07;100233.50;;;20.59;61.67
61384;BME280;63511;49.346;8.798;2023-05-23T07:05:36;100232.34;;;20.48;62.90
61384;BME280;63511;49.346;8.798;2023-05-23T07:08:03;100232.50;;;20.88;63.41
61384;BME280;63511;49.346;8.798;2023-05-23T07:10:30;100238.84;;;21.02;61.30
61384;BME280;63511;49.346;8.798;2023-05-23T07:13:00;100250.72;;;20.97;60.51
61384;BME280;63511;49.346;8.798;2023-05-23T07:15:26;100253.50;;;21.06;60.77
61384;BME280;63511;49.346;8.798;2023-05-23T07:17:55;100249.97;;;20.67;61.33
61384;BME280;63511;49.346;8.798;2023-05-23T07:20:27;100261.81;;;20.96;61.37
61384;BME280;63511;49.346;8.798;2023-05-23T07:22:53;100258.72;;;20.75;60.28
61384;BME280;63511;49.346;8.798;2023-05-23T07:25:21;100257.50;;;20.61;61.69
61384;BME280;63511;49.346;8.798;2023-05-23T07:27:48;100258.25;;;20.91;59.75
61384;BME280;63511;49.346;8.798;2023-05-23T07:30:16;100256.88;;;21.05;58.81
61384;BME280;63511;49.346;8.798;2023-05-23T07:32:44;100253.44;;;21.05;59.44
61384;BME280;63511;49.346;8.798;2023-05-23T07:35:12;100254.19;;;21.35;59.51
61384;BME280;63511;49.346;8.798;2023-05-23T07:37:41;100264.81;;;20.80;59.47
61384;BME280;63511;49.346;8.798;2023-05-23T07:40:07;100259.84;;;20.86;60.04
61384;BME280;63511;49.346;8.798;2023-05-23T07:42:34;100264.00;;;20.48;60.62
61384;BME280;63511;49.346;8.798;2023-05-23T07:45:01;100257.56;;;20.64;60.04
61384;BME280;63511;49.346;8.798;2023-05-23T07:47:29;100261.84;;;20.98;59.06
61384;BME280;63511;49.346;8.798;2023-05-23T07:49:55;100263.72;;;20.70;59.84
61384;BME280;63511;49.346;8.798;2023-05-23T07:52:23;100259.28;;;20.99;59.94
61384;BME280;63511;49.346;8.798;2023-05-23T07:54:50;100260.09;;;20.97;59.41
61384;BME280;63511;49.346;8.798;2023-05-23T07:57:16;100256.72;;;20.98;59.19
61384;BME280;63511;49.346;8.798;2023-05-23T07:59:43;100262.59;;;21.30;59.02
61384;BME280;63511;49.346;8.798;2023-05-23T08:02:09;100269.63;;;20.68;59.41
61384;BME280;63511;49.346;8.798;2023-05-23T08:04:38;100269.91;;;20.77;60.06
61384;BME280;63511;49.346;8.798;2023-05-23T08:07:07;100263.91;;;20.78;58.80
61384;BME280;63511;49.346;8.798;2023-05-23T08:09:34;100268.75;;;20.66;59.38
61384;BME280;63511;49.346;8.798;2023-05-23T08:12:00;100265.66;;;21.13;58.68
61384;BME280;63511;49.346;8.798;2023-05-23T08:14:27;100256.78;;;21.37;57.63
61384;BME280;63511;49.346;8.798;2023-05-23T08:16:53;100271.09;;;21.26;59.20
61384;BME280;63511;49.346;8.798;2023-05-23T08:19:20;100266.63;;;21.56;57.11
61384;BME280;63511;49.346;8.798;2023-05-23T08:21:48;100269.63;;;21.74;56.70
61384;BME280;63511;49.346;8.798;2023-05-23T08:24:15;100266.38;;;21.44;57.00
61384;BME280;63511;49.346;8.798;2023-05-23T08:26:41;100274.63;;;21.31;57.41
61384;BME280;63511;49.346;8.798;2023-05-23T08:29:08;100268.13;;;21.85;56.10
61384;BME280;63511;49.346;8.798;2023-05-23T08:31:34;100282.06;;;21.18;57.04
61384;BME280;63511;49.346;8.798;2023-05-23T08:34:01;100273.06;;;21.75;55.62
61384;BME280;63511;49.346;8.798;2023-05-23T08:36:28;100274.25;;;21.90;55.20
61384;BME280;63511;49.346;8.798;2023-05-23T08:38:57;100273.75;;;21.29;56.24
61384;BME280;63511;49.346;8.798;2023-05-23T08:41:24;100277.69;;;21.52;56.10
61384;BME280;63511;49.346;8.798;2023-05-23T08:43:50;100272.53;;;21.52;57.62
61384;BME280;63511;49.346;8.798;2023-05-23T08:46:17;100275.25;;;21.20;55.93
61384;BME280;63511;49.346;8.798;2023-05-23T08:48:46;100275.34;;;21.24;56.42
61384;BME280;63511;49.346;8.798;2023-05-23T08:51:16;100294.75;;;21.48;55.94
61384;BME280;63511;49.346;8.798;2023-05-23T08:53:42;100295.44;;;21.41;56.80
61384;BME280;63511;49.346;8.798;2023-05-23T08:56:12;100295.44;;;21.41;56.14
61384;BME280;63511;49.346;8.798;2023-05-23T08:58:39;100286.31;;;21.55;56.03
61384;BME280;63511;49.346;8.798;2023-05-23T09:01:07;100292.41;;;21.22;56.60
61384;BME280;63511;49.346;8.798;2023-05-23T09:03:34;100293.22;;;21.20;57.08
61384;BME280;63511;49.346;8.798;2023-05-23T09:06:02;100295.38;;;21.38;57.03
61384;BME280;63511;49.346;8.798;2023-05-23T09:08:29;100294.88;;;20.84;57.02
61384;BME280;63511;49.346;8.798;2023-05-23T09:10:56;100303.25;;;21.11;56.78
61384;BME280;63511;49.346;8.798;2023-05-23T09:13:24;100294.97;;;21.22;56.18
61384;BME280;63511;49.346;8.798;2023-05-23T09:15:55;100303.84;;;21.34;56.30
61384;BME280;63511;49.346;8.798;2023-05-23T09:18:24;100302.09;;;21.33;57.03
61384;BME280;63511;49.346;8.798;2023-05-23T09:20:50;100306.09;;;21.58;56.24
61384;BME280;63511;49.346;8.798;2023-05-23T09:23:17;100298.63;;;21.69;56.25
61384;BME280;63511;49.346;8.798;2023-05-23T09:25:46;100302.03;;;21.68;56.01
61384;BME280;63511;49.346;8.798;2023-05-23T09:28:16;100299.06;;;21.49;56.23
61384;BME280;63511;49.346;8.798;2023-05-23T09:30:44;100293.69;;;21.39;55.67
61384;BME280;63511;49.346;8.798;2023-05-23T09:33:12;100291.19;;;21.82;56.79
61384;BME280;63511;49.346;8.798;2023-05-23T09:35:42;100287.47;;;21.68;56.28
61384;BME280;63511;49.346;8.798;2023-05-23T09:38:09;100292.31;;;22.35;54.89
61384;BME280;63511;49.346;8.798;2023-05-23T09:40:36;100287.22;;;22.38;53.32
61384;BME280;63511;49.346;8.798;2023-05-23T09:43:03;100287.09;;;21.90;53.76
61384;BME280;63511;49.346;8.798;2023-05-23T09:45:31;100288.16;;;22.42;53.42
61384;BME280;63511;49.346;8.798;2023-05-23T09:48:00;100285.38;;;22.76;52.12
61384;BME280;63511;49.346;8.798;2023-05-23T09:50:29;100287.25;;;22.86;53.06
61384;BME280;63511;49.346;8.798;2023-05-23T09:52:56;100289.47;;;23.18;52.11
61384;BME280;63511;49.346;8.798;2023-05-23T09:55:22;100290.38;;;23.20;54.19
61384;BME280;63511;49.346;8.798;2023-05-23T09:57:59;100288.06;;;23.37;53.04
61384;BME280;63511;49.346;8.798;2023-05-23T10:00:26;100293.53;;;23.02;52.20
61384;BME280;63511;49.346;8.798;2023-05-23T10:02:54;100294.78;;;22.74;52.98
61384;BME280;63511;49.346;8.798;2023-05-23T10:05:27;100295.22;;;23.00;51.79
61384;BME280;63511;49.346;8.798;2023-05-23T10:07:58;100286.53;;;22.94;51.34
61384;BME280;63511;49.346;8.798;2023-05-23T10:10:27;100292.72;;;23.05;51.60
61384;BME280;63511;49.346;8.798;2023-05-23T10:12:54;100286.97;;;23.21;51.52
61384;BME280;63511;49.346;8.798;2023-05-23T10:15:23;100289.03;;;22.91;54.83
61384;BME280;63511;49.346;8.798;2023-05-23T10:17:56;100279.63;;;22.93;53.61
61384;BME280;63511;49.346;8.798;2023-05-23T10:20:28;100290.53;;;23.32;51.48
61384;BME280;63511;49.346;8.798;2023-05-23T10:22:55;100283.25;;;23.59;50.65
61384;BME280;63511;49.346;8.798;2023-05-23T10:25:29;100286.50;;;23.48;50.35
61384;BME280;63511;49.346;8.798;2023-05-23T10:28:18;100285.44;;;23.95;49.67
61384;BME280;63511;49.346;8.798;2023-05-23T10:30:54;100279.06;;;23.69;49.99
61384;BME280;63511;49.346;8.798;2023-05-23T10:33:21;100275.38;;;24.17;49.35
61384;BME280;63511;49.346;8.798;2023-05-23T10:35:55;100282.44;;;23.08;50.31
61384;BME280;63511;49.346;8.798;2023-05-23T10:38:29;100287.34;;;23.45;52.93
61384;BME280;63511;49.346;8.798;2023-05-23T10:41:00;100281.06;;;23.90;50.46
61384;BME280;63511;49.346;8.798;2023-05-23T10:43:30;100276.13;;;22.87;51.82
61384;BME280;63511;49.346;8.798;2023-05-23T10:45:59;100284.34;;;23.19;50.36
61384;BME280;63511;49.346;8.798;2023-05-23T10:48:31;100276.16;;;22.89;50.72
61384;BME280;63511;49.346;8.798;2023-05-23T10:51:05;100284.69;;;23.42;50.79
61384;BME280;63511;49.346;8.798;2023-05-23T11:31:56;100312.56;;;23.10;52.13
61384;BME280;63511;49.346;8.798;2023-05-23T11:34:33;100305.44;;;23.48;51.15
61384;BME280;63511;49.346;8.798;2023-05-23T12:41:08;100284.47;;;24.60;50.79
61384;BME280;63511;49.346;8.798;2023-05-23T12:53:51;100289.97;;;24.14;49.37
61384;BME280;63511;49.346;8.798;2023-05-23T12:56:05;100298.69;;;23.02;52.45
61384;BME280;63511;49.346;8.798;2023-05-23T13:10:00;100301.31;;;22.57;54.64
61384;BME280;63511;49.346;8.798;2023-05-23T14:43:30;100295.66;;;22.76;53.04
61384;BME280;63511;49.346;8.798;2023-05-23T14:51:58;100287.03;;;23.25;51.70
61384;BME280;63511;49.346;8.798;2023-05-23T15:06:33;100298.38;;;22.84;51.45
61384;BME280;63511;49.346;8.798;2023-05-23T15:08:59;100292.88;;;22.66;51.32
61384;BME280;63511;49.346;8.798;2023-05-23T15:14:42;100298.91;;;23.16;52.09
61384;BME280;63511;49.346;8.798;2023-05-23T15:20:11;100296.47;;;22.72;51.90
61384;BME280;63511;49.346;8.798;2023-05-23T15:22:39;100290.50;;;22.76;50.32
61384;BME280;63511;49.346;8.798;2023-05-23T15:25:06;100286.03;;;23.17;51.00
61384;BME280;63511;49.346;8.798;2023-05-23T15:27:33;100281.16;;;23.34;50.46
61384;BME280;63511;49.346;8.798;2023-05-23T15:29:59;100288.75;;;23.25;50.03
61384;BME280;63511;49.346;8.798;2023-05-23T15:32:26;100281.16;;;23.37;49.76
61384;BME280;63511;49.346;8.798;2023-05-23T15:34:52;100290.25;;;23.12;50.35
61384;BME280;63511;49.346;8.798;2023-05-23T15:37:19;100281.84;;;22.71;51.13
61384;BME280;63511;49.346;8.798;2023-05-23T15:39:47;100279.00;;;22.59;50.67
61384;BME280;63511;49.346;8.798;2023-05-23T15:42:14;100284.75;;;22.44;52.16
61384;BME280;63511;49.346;8.798;2023-05-23T15:44:40;100280.06;;;22.69;51.14
61384;BME280;63511;49.346;8.798;2023-05-23T15:47:07;100286.81;;;22.62;51.16
61384;BME280;63511;49.346;8.798;2023-05-23T15:49:34;100282.16;;;22.43;51.67
61384;BME280;63511;49.346;8.798;2023-05-23T15:52:00;100292.91;;;22.67;50.85
61384;BME280;63511;49.346;8.798;2023-05-23T15:54:27;100293.81;;;22.69;51.36
61384;BME280;63511;49.346;8.798;2023-05-23T15:56:55;100291.91;;;22.61;51.56
61384;BME280;63511;49.346;8.798;2023-05-23T15:59:21;100292.19;;;22.28;52.61
61384;BME280;63511;49.346;8.798;2023-05-23T16:01:47;100290.72;;;22.43;52.15
61384;BME280;63511;49.346;8.798;2023-05-23T16:04:14;100296.63;;;21.94;53.36
61384;BME280;63511;49.346;8.798;2023-05-23T16:06:56;100305.41;;;22.04;52.18
61384;BME280;63511;49.346;8.798;2023-05-23T16:09:27;100305.09;;;21.92;53.04
61384;BME280;63511;49.346;8.798;2023-05-23T16:12:19;100311.84;;;22.26;52.96
61384;BME280;63511;49.346;8.798;2023-05-23T16:15:04;100312.66;;;22.23;52.90
61384;BME280;63511;49.346;8.798;2023-05-23T16:17:33;100304.28;;;21.93;52.79
61384;BME280;63511;49.346;8.798;2023-05-23T16:20:07;100304.53;;;22.02;52.80
61384;BME280;63511;49.346;8.798;2023-05-23T16:22:39;100299.38;;;22.03;52.36
61384;BME280;63511;49.346;8.798;2023-05-23T16:25:06;100302.06;;;22.52;51.74
61384;BME280;63511;49.346;8.798;2023-05-23T16:27:45;100298.94;;;22.24;52.58
61384;BME280;63511;49.346;8.798;2023-05-23T16:30:19;100303.63;;;22.45;52.43
61384;BME280;63511;49.346;8.798;2023-05-23T16:32:49;100298.81;;;21.78;53.47
61384;BME280;63511;49.346;8.798;2023-05-23T16:35:16;100318.03;;;21.56;54.01
61384;BME280;63511;49.346;8.798;2023-05-23T16:37:52;100314.84;;;21.66;54.11
61384;BME280;63511;49.346;8.798;2023-05-23T16:40:19;100319.88;;;21.60;54.15
61384;BME280;63511;49.346;8.798;2023-05-23T16:42:59;100314.44;;;21.48;54.42
61384;BME280;63511;49.346;8.798;2023-05-23T16:45:27;100318.69;;;21.47;54.45
61384;BME280;63511;49.346;8.798;2023-05-23T16:47:54;100317.53;;;21.35;55.43
61384;BME280;63511;49.346;8.798;2023-05-23T16:50:22;100319.53;;;21.46;54.44
61384;BME280;63511;49.346;8.798;2023-05-23T16:52:48;100309.91;;;21.38;54.89
61384;BME280;63511;49.346;8.798;2023-05-23T16:55:15;100303.19;;;21.82;53.96